Change the Weather History Date:

Monday, January 7, 2013

  Actual Average (KP28) Record (KP28)
Temperature  
Mean Temperature 38 °F 33 °F  
Max Temperature 51 °F 44 °F 74 °F (1965)
Min Temperature 26 °F 21 °F -13 °F (1912)
Degree Days  
Heating Degree Days 26 32  
Month to date heating degree days 224  
Since 1 July heating degree days 2023  
Cooling Degree Days 0 0  
Month to date cooling degree days 0  
Year to date cooling degree days 0  
Moisture  
Dew Point 26 °F    
Average Humidity 67    
Maximum Humidity 86    
Minimum Humidity 35    
Precipitation  
Precipitation 0.00 in 0.02 in 0.78 in (1937)
Month to date precipitation 0.12  
Year to date precipitation 0.12  
Snow  
Snow 0.00 in 0.10 in - ()
Month to date snowfall 0.4  
Since 1 July snowfall 3.3  
Snow Depth -    
Sea Level Pressure  
Sea Level Pressure 30.07 in    
Wind  
Wind Speed 14 mph (SSW)    
Max Wind Speed 28 mph    
Max Gust Speed 33 mph    
Visibility 10 miles    
Events      
T = Trace of Precipitation, MM = Missing Value Source: NWS Daily Summary

Daily Weather History Graph

Daily Weather History Graph

Search for Another Location

Airport or City:

Trip Planner

Search our weather history database for the weather conditions in past years. The results will help you decide how hot, cold, wet, or windy it might be!

Date:

Astronomy

Jan. 07, 2013 Rise Set
Actual Time 7:50 AM CST 5:32 PM CST
Civil Twilight 7:21 AM CST 6:01 PM CST
Nautical Twilight 6:48 AM CST 6:34 PM CST
Astronomical Twilight 6:17 AM CST 7:05 PM CST
Moon 3:17 AM CST (1/7) 1:43 PM CST (1/7)
Length of Visible Light 10h 40m
Length of Day
9h 42m
Waning Crescent, 22% of the Moon is Illuminated
Jan 7
Waning Crescent
Jan 11
New
Jan 18
First Quarter
Jan 26
Full
Feb 3
Last Quarter

Hourly Weather History & Observations

Time (CST) Temp. Windchill Dew Point Humidity Pressure Visibility Wind Dir Wind Speed Gust Speed Precip Events Conditions
12:15 AM 32.0 °F 22.1 °F 24.8 °F 75% 30.19 in 10.0 mi South 13.8 mph - N/A   Clear
12:35 AM 32.0 °F 21.6 °F 24.8 °F 75% 30.19 in 10.0 mi South 15.0 mph - N/A   Clear
12:55 AM 32.0 °F 21.6 °F 24.8 °F 75% 30.18 in 10.0 mi South 15.0 mph - N/A   Clear
1:15 AM 32.0 °F 23.0 °F 24.8 °F 75% 30.18 in 10.0 mi South 11.5 mph - N/A   Clear
1:35 AM 32.0 °F 21.6 °F 24.8 °F 75% 30.17 in 10.0 mi SSW 15.0 mph - N/A   Clear
1:55 AM 32.0 °F 22.1 °F 24.8 °F 75% 30.17 in 10.0 mi SSW 13.8 mph - N/A   Clear
2:15 AM 32.0 °F 22.1 °F 24.8 °F 75% 30.17 in 10.0 mi South 13.8 mph - N/A   Clear
2:35 AM 30.2 °F 20.2 °F 24.8 °F 80% 30.17 in 10.0 mi SSW 12.7 mph - N/A   Clear
2:55 AM 30.2 °F 20.2 °F 24.8 °F 80% 30.17 in 10.0 mi SSW 12.7 mph - N/A   Clear
3:15 AM 28.4 °F 18.5 °F 23.0 °F 80% 30.17 in 10.0 mi South 11.5 mph - N/A   Clear
3:35 AM 28.4 °F 18.5 °F 24.8 °F 86% 30.16 in 10.0 mi SSW 11.5 mph - N/A   Clear
3:55 AM 30.2 °F 19.3 °F 24.8 °F 80% 30.16 in 10.0 mi SSW 15.0 mph - N/A   Clear
4:15 AM 30.2 °F 20.8 °F 24.8 °F 80% 30.15 in 10.0 mi South 11.5 mph - N/A   Clear
4:35 AM 30.2 °F 20.8 °F 24.8 °F 80% 30.14 in 10.0 mi South 11.5 mph - N/A   Clear
4:55 AM 28.4 °F 19.1 °F 23.0 °F 80% 30.14 in 10.0 mi South 10.4 mph - N/A   Clear
5:15 AM 26.6 °F 16.8 °F 23.0 °F 86% 30.14 in 10.0 mi SSW 10.4 mph - N/A   Clear
5:35 AM 28.4 °F 19.1 °F 23.0 °F 80% 30.12 in 10.0 mi South 10.4 mph - N/A   Clear
5:55 AM 28.4 °F 19.1 °F 23.0 °F 80% 30.12 in 10.0 mi South 10.4 mph - N/A   Clear
6:15 AM 28.4 °F 18.5 °F 23.0 °F 80% 30.12 in 10.0 mi South 11.5 mph - N/A   Clear
6:35 AM 28.4 °F 17.5 °F 24.8 °F 86% 30.11 in 10.0 mi South 13.8 mph - N/A   Clear
6:55 AM 30.2 °F 19.8 °F 24.8 °F 80% 30.12 in 10.0 mi SSW 13.8 mph - N/A   Clear
7:15 AM 30.2 °F 20.2 °F 24.8 °F 80% 30.12 in 10.0 mi SSW 12.7 mph - N/A   Clear
7:35 AM 30.2 °F 20.8 °F 24.8 °F 80% 30.12 in 10.0 mi SSW 11.5 mph - N/A   Clear
7:55 AM 32.0 °F 21.6 °F 24.8 °F 75% 30.12 in 10.0 mi SSW 15.0 mph - N/A   Clear
8:35 AM 32.0 °F 22.1 °F 24.8 °F 75% 30.12 in 10.0 mi SSW 13.8 mph - N/A   Clear
8:55 AM 32.0 °F 22.5 °F 24.8 °F 75% 30.12 in 10.0 mi SSW 12.7 mph - N/A   Clear
9:15 AM 32.0 °F 24.2 °F 26.6 °F 80% 30.12 in 10.0 mi SSW 9.2 mph - N/A   Clear
9:35 AM 33.8 °F 24.3 °F 26.6 °F 75% 30.12 in 10.0 mi South 13.8 mph - N/A   Clear
9:55 AM 33.8 °F 23.5 °F 26.6 °F 75% 30.12 in 10.0 mi South 16.1 mph - N/A   Clear
10:15 AM 35.6 °F 27.1 °F 26.6 °F 70% 30.12 in 10.0 mi South 12.7 mph - N/A   Clear
10:35 AM 37.4 °F 28.5 °F 26.6 °F 65% 30.12 in 10.0 mi SSW 15.0 mph - N/A   Clear
10:55 AM 37.4 °F 28.5 °F 26.6 °F 65% 30.12 in 10.0 mi SSW 15.0 mph - N/A   Clear
11:35 AM 42.8 °F 35.1 °F 26.6 °F 53% 30.11 in 10.0 mi SSW 16.1 mph - N/A   Clear
11:55 AM 44.6 °F 36.6 °F 26.6 °F 49% 30.09 in 10.0 mi SW 19.6 mph 24.2 mph N/A   Clear
12:15 PM 46.4 °F 38.1 °F 26.6 °F 46% 30.08 in 10.0 mi SW 24.2 mph 27.6 mph N/A   Clear
12:35 PM 48.2 °F - 26.6 °F 43% 30.06 in 10.0 mi SW 24.2 mph - N/A   Clear
1:15 PM 50.0 °F - 23.0 °F 35% 30.03 in 10.0 mi SW 27.6 mph 33.4 mph N/A   Clear
1:55 PM 50.0 °F - 23.0 °F 35% 30.03 in 10.0 mi SSW 15.0 mph 28.8 mph N/A   Clear
2:15 PM 50.0 °F - 26.6 °F 40% 30.03 in 10.0 mi SSW 13.8 mph - N/A   Clear
2:35 PM 50.0 °F - 26.6 °F 40% 30.02 in 10.0 mi SSW 13.8 mph - N/A   Clear
2:55 PM 51.8 °F - 24.8 °F 35% 30.02 in 10.0 mi SW 18.4 mph 23.0 mph N/A   Clear
3:15 PM 50.0 °F - 24.8 °F 37% 30.02 in 10.0 mi SSW 18.4 mph - N/A   Clear
3:35 PM 50.0 °F - 24.8 °F 37% 30.02 in 10.0 mi SSW 12.7 mph - N/A   Clear
3:55 PM 50.0 °F - 26.6 °F 40% 30.01 in 10.0 mi SSW 12.7 mph - N/A   Clear
4:15 PM 48.2 °F - 26.6 °F 43% 30.01 in 10.0 mi SSW 10.4 mph - N/A   Clear
4:35 PM 46.4 °F 42.4 °F 28.4 °F 50% 30.00 in 10.0 mi South 8.1 mph - N/A   Clear
5:15 PM 44.6 °F 38.4 °F 28.4 °F 53% 30.00 in 10.0 mi South 12.7 mph 16.1 mph N/A   Clear
5:35 PM 42.8 °F 36.6 °F 28.4 °F 57% 29.99 in 10.0 mi South 11.5 mph - N/A   Clear
5:55 PM 42.8 °F 36.6 °F 26.6 °F 53% 29.99 in 10.0 mi South 11.5 mph - N/A   Clear
6:15 PM 42.8 °F 35.8 °F 26.6 °F 53% 29.99 in 10.0 mi South 13.8 mph - N/A   Clear
6:35 PM 42.8 °F 35.8 °F 26.6 °F 53% 29.99 in 10.0 mi South 13.8 mph - N/A   Clear
6:55 PM 41.0 °F 34.3 °F 26.6 °F 57% 30.00 in 10.0 mi South 11.5 mph - N/A   Clear
7:15 PM 41.0 °F 33.5 °F 26.6 °F 57% 30.00 in 10.0 mi South 13.8 mph - N/A   Clear
7:35 PM 39.2 °F 30.8 °F 26.6 °F 61% 30.00 in 10.0 mi South 15.0 mph 18.4 mph N/A   Clear
7:55 PM 39.2 °F 31.2 °F 26.6 °F 61% 30.00 in 10.0 mi South 13.8 mph - N/A   Clear
8:15 PM 37.4 °F 28.5 °F 26.6 °F 65% 30.00 in 10.0 mi South 15.0 mph - N/A   Clear
8:35 PM 37.4 °F 28.9 °F 26.6 °F 65% 29.99 in 10.0 mi South 13.8 mph - N/A   Clear
8:55 PM 37.4 °F 28.9 °F 26.6 °F 65% 29.99 in 10.0 mi South 13.8 mph - N/A   Clear
9:15 PM 35.6 °F 26.6 °F 28.4 °F 75% 29.99 in 10.0 mi South 13.8 mph - N/A   Clear
9:35 PM 35.6 °F 27.1 °F 26.6 °F 70% 29.99 in 10.0 mi South 12.7 mph - N/A   Clear
9:55 PM 33.8 °F 24.8 °F 26.6 °F 75% 29.98 in 10.0 mi South 12.7 mph - N/A   Clear
10:15 PM 33.8 °F 25.3 °F 26.6 °F 75% 29.99 in 10.0 mi South 11.5 mph - N/A   Clear
10:35 PM 32.0 °F 24.8 °F 26.6 °F 80% 29.99 in 10.0 mi SSW 8.1 mph - N/A   Clear
10:55 PM 32.0 °F 23.6 °F 26.6 °F 80% 29.99 in 10.0 mi SSW 10.4 mph - N/A   Clear
11:15 PM 32.0 °F 24.2 °F 26.6 °F 80% 29.99 in 10.0 mi SSW 9.2 mph - N/A   Clear
11:35 PM 32.0 °F 24.2 °F 26.6 °F 80% 29.98 in 10.0 mi South 9.2 mph - N/A   Clear
11:55 PM 30.2 °F 21.9 °F 26.6 °F 86% 29.98 in 10.0 mi South 9.2 mph - N/A   Clear